Friday, May 25, 2018, 8:46 AM EDT
Back to Local

KCQX, Chatham Municipal Airport

Location: Chatham, MA, United States Lat: 41.683
Local Time: 8:46 AM EDT (12:46 GMT) Lon: -70
Time Zone: US/Eastern Elev: 68 ft

Show me the last for .
Show Decoded

2018-05-25 07:52 METAR KCQX 251152Z AUTO 23010G20KT 10SM CLR 16/12 A2999 RMK AO2 SLP156 T01610122
                 10161 20122 58008 TSNO =
2018-05-25 06:52 METAR KCQX 251052Z AUTO 23008G17KT 10SM CLR 15/13 A3000 RMK AO2 SLP160 T01500128
                 TSNO =
2018-05-25 06:20 METAR KCQX 251020Z AUTO 23008KT 10SM FEW005 14/13 A3000 RMK AO2 T01390133 TSNO =
2018-05-25 05:52 METAR KCQX 250952Z AUTO 23008G17KT 10SM OVC004 13/13 A3001 RMK AO2 SLP163
                 T01330128 TSNO =
2018-05-25 04:52 METAR KCQX 250852Z AUTO 23012G21KT 7SM OVC002 13/12 A3001 RMK AO2 SLP164
                 T01280122 58014 TSNO =
2018-05-25 04:01 METAR KCQX 250801Z AUTO 22008G19KT 10SM BKN004 13/12 A3002 RMK AO2 CIG 002V007
                 T01280122 TSNO =
2018-05-25 03:52 METAR KCQX 250752Z AUTO 22009G19KT 10SM SCT004 13/12 A3003 RMK AO2 SLP170
                 T01280117 TSNO =
2018-05-25 02:52 METAR KCQX 250652Z AUTO 22011G19KT 10SM SCT005 12/12 A3005 RMK AO2 SLP177
                 T01220117 TSNO =
2018-05-25 02:47 METAR KCQX 250647Z AUTO 23011G21KT 10SM SCT005 12/12 A3005 RMK AO2 TSNO =
2018-05-25 02:22 METAR KCQX 250622Z AUTO 22012G20KT 10SM BKN005 12/11 A3006 RMK AO2 T01220111
                 TSNO =
2018-05-25 01:52 METAR KCQX 250552Z AUTO 23009G19KT 10SM BKN004 12/11 A3007 RMK AO2 SLP184
                 T01220111 10128 20117 58016 TSNO =
2018-05-25 00:52 METAR KCQX 250452Z AUTO 22008G21KT 10SM OVC004 13/12 A3009 RMK AO2 SLP190
                 T01280117 401560117 TSNO =
2018-05-25 00:36 METAR KCQX 250436Z AUTO 22012G19KT 10SM OVC004 13/12 A3009 RMK AO2 T01280122
                 TSNO =
2018-05-25 00:09 METAR KCQX 250409Z AUTO 22012G19KT 10SM OVC005 13/12 A3010 RMK AO2 T01280117
                 TSNO =
2018-05-24 23:52 METAR KCQX 250352Z AUTO 22013G20KT 10SM OVC006 13/12 A3010 RMK AO2 SLP195
                 T01280117 TSNO =
2018-05-24 22:52 METAR KCQX 250252Z AUTO 21011G18KT 10SM BKN009 12/11 A3012 RMK AO2 SLP200
                 T01220106 58006 TSNO =
2018-05-24 22:41 METAR KCQX 250241Z AUTO 22010G18KT 10SM BKN009 12/11 A3012 RMK AO2 T01220106
                 TSNO =
2018-05-24 22:27 METAR KCQX 250227Z AUTO 21009G18KT 10SM SCT009 12/11 A3013 RMK AO2 T01220106
                 TSNO =
2018-05-24 21:52 METAR KCQX 250152Z AUTO 21009G17KT 10SM CLR 12/09 A3014 RMK AO2 SLP206 T01220089
                 TSNO =
2018-05-24 20:52 METAR KCQX 250052Z AUTO VRB05KT 10SM CLR 12/07 A3013 RMK AO2 SLP204 T01170067
                 TSNO =
2018-05-24 19:52 METAR KCQX 242352Z AUTO 19006KT 10SM CLR 12/07 A3014 RMK AO2 SLP206 T01170067
                 10150 20117 55000 TSNO =
2018-05-24 18:52 METAR KCQX 242252Z AUTO 19006KT 10SM CLR 12/07 A3013 RMK AO2 SLP205 T01220072
                 TSNO =
2018-05-24 17:52 METAR KCQX 242152Z AUTO 17007KT 10SM CLR 13/07 A3013 RMK AO2 SLP203 T01280072
                 TSNO =
2018-05-24 16:52 METAR KCQX 242052Z AUTO VRB05G15KT 10SM CLR 14/07 A3014 RMK AO2 SLP206 T01390067
                 56007 TSNO =
2018-05-24 15:52 METAR KCQX 241952Z AUTO 13010G14KT 10SM CLR 14/07 A3014 RMK AO2 SLP208 T01390072
                 TSNO =
2018-05-24 14:52 METAR KCQX 241852Z AUTO 12010G16KT 10SM CLR 14/06 A3015 RMK AO2 SLP210 T01390056
                 TSNO =
2018-05-24 13:52 METAR KCQX 241752Z AUTO VRB05KT 10SM CLR 14/08 A3016 RMK AO2 SLP212 T01440078
                 10156 20128 53001 TSNO =
2018-05-24 12:52 METAR KCQX 241652Z AUTO 10007KT 070V140 10SM SCT030 14/08 A3015 RMK AO2 SLP211
                 T01440078 TSNO =
2018-05-24 12:50 METAR KCQX 241650Z AUTO 11009KT 10SM SCT030 14/08 A3015 RMK AO2 TSNO =
2018-05-24 12:40 METAR KCQX 241640Z AUTO 08009KT 10SM BKN029 14/07 A3015 RMK AO2 T01440072 TSNO =
2018-05-24 11:52 METAR KCQX 241552Z AUTO 06008KT 10SM FEW030 14/07 A3015 RMK AO2 SLP211 T01440072
                 TSNO =
2018-05-24 10:52 METAR KCQX 241452Z AUTO 09009KT 10SM CLR 14/07 A3014 RMK AO2 SLP207 T01390072
                 51016 TSNO =
2018-05-24 10:01 METAR KCQX 241401Z AUTO 10009KT 10SM SCT017 SCT028 14/08 A3013 RMK AO2 T01390078
                 TSNO =
2018-05-24 09:52 METAR KCQX 241352Z AUTO 09010KT 10SM BKN018 14/07 A3013 RMK AO2 SLP202 T01390072
                 TSNO =
2018-05-24 08:52 METAR KCQX 241252Z AUTO 09008KT 10SM OVC020 13/08 A3012 RMK AO2 SLP200 T01280078
                 TSNO =

Support USWX by starting your Amazon purchase here.